Time;durP1;ratioP1;P1;durP2;ratioP2;P2;SDS_P1;SDS_P2;PMS_P1;PMS_P2;Temp;Humidity;BMP_temperature;BMP_pressure;BME280_temperature;BME280_humidity;BME280_pressure;Samples;Min_cycle;Max_cycle;Signal;HPM_P1;HPM_P2
2021/05/18 00:01:14;;;;;;;9.07;7.10;;;12.40;99.90;;;;;;4423410;32;20161;-71
2021/05/18 00:03:41;;;;;;;10.67;7.33;;;12.40;99.90;;;;;;4423334;32;20134;-72
2021/05/18 00:06:07;;;;;;;11.23;7.90;;;12.30;99.90;;;;;;4423380;32;20441;-72
2021/05/18 00:11:42;;;;;;;11.57;7.70;;;12.30;99.90;;;;;;4424800;32;20154;-71
2021/05/18 00:14:07;;;;;;;11.40;8.93;;;12.20;99.90;;;;;;4424170;32;20153;-71
2021/05/18 00:16:35;;;;;;;11.67;9.17;;;12.10;99.90;;;;;;4424583;32;20151;-71
2021/05/18 00:19:04;;;;;;;13.07;10.33;;;12.10;99.90;;;;;;4423152;32;20225;-72
2021/05/18 00:21:30;;;;;;;15.03;10.50;;;12.00;99.90;;;;;;4423294;32;20181;-71
2021/05/18 00:23:58;;;;;;;13.90;10.10;;;12.10;99.90;;;;;;4423838;32;20150;-72
2021/05/18 00:26:25;;;;;;;13.87;10.67;;;12.00;99.90;;;;;;4424707;32;20142;-71
2021/05/18 00:28:52;;;;;;;16.00;11.93;;;12.00;99.90;;;;;;4426443;32;20426;-71
2021/05/18 00:31:19;;;;;;;16.10;12.00;;;12.00;99.90;;;;;;4427197;32;20449;-71
2021/05/18 00:33:46;;;;;;;15.43;11.70;;;11.90;99.90;;;;;;4426186;32;20214;-71
2021/05/18 00:36:13;;;;;;;16.43;12.33;;;12.00;99.90;;;;;;4427578;32;20135;-71
2021/05/18 00:38:41;;;;;;;15.73;12.33;;;12.00;99.90;;;;;;4425970;32;20143;-71
2021/05/18 00:41:09;;;;;;;17.60;13.37;;;11.90;99.90;;;;;;4426029;32;20200;-71
2021/05/18 00:43:38;;;;;;;19.00;14.07;;;11.90;99.90;;;;;;4425815;32;20560;-71
2021/05/18 00:46:06;;;;;;;20.83;15.57;;;11.90;99.90;;;;;;4427444;32;20428;-71
2021/05/18 00:48:33;;;;;;;23.83;16.67;;;11.90;99.90;;;;;;4426069;32;20198;-71
2021/05/18 00:51:09;;;;;;;22.20;15.67;;;11.90;99.90;;;;;;4425888;32;20292;-72
2021/05/18 00:53:39;;;;;;;19.63;14.70;;;11.90;99.90;;;;;;4425811;32;20134;-71
2021/05/18 00:56:20;;;;;;;19.83;14.63;;;12.00;99.90;;;;;;4425348;32;20461;-72
2021/05/18 00:58:47;;;;;;;20.67;15.43;;;12.00;99.90;;;;;;4427247;32;20173;-71
2021/05/18 01:01:18;;;;;;;21.67;14.30;;;12.00;99.90;;;;;;4425798;32;20193;-72
2021/05/18 01:03:47;;;;;;;19.57;14.43;;;12.00;99.90;;;;;;4426583;32;20158;-72
2021/05/18 01:06:19;;;;;;;18.53;13.37;;;12.10;99.90;;;;;;4425836;32;20525;-72
2021/05/18 01:08:49;;;;;;;19.03;13.63;;;12.10;99.90;;;;;;4427317;32;20204;-71
2021/05/18 01:11:20;;;;;;;20.30;14.10;;;12.10;99.90;;;;;;4425487;32;20184;-71
2021/05/18 01:13:47;;;;;;;17.70;12.73;;;12.00;99.90;;;;;;4411463;32;20277;-72
2021/05/18 01:16:14;;;;;;;18.77;13.23;;;12.00;99.90;;;;;;4425590;32;20131;-72
2021/05/18 01:18:47;;;;;;;17.07;12.87;;;12.00;99.90;;;;;;4427022;32;20162;-72
2021/05/18 01:21:16;;;;;;;17.03;12.73;;;12.10;99.90;;;;;;4425084;32;20709;-75
2021/05/18 01:23:43;;;;;;;18.50;12.47;;;12.10;99.90;;;;;;4423178;32;20193;-75
2021/05/18 01:26:12;;;;;;;16.57;12.47;;;12.20;99.90;;;;;;4423147;32;20158;-75
2021/05/18 01:28:40;;;;;;;16.23;12.63;;;12.20;99.90;;;;;;4422822;32;20422;-75
2021/05/18 01:31:08;;;;;;;14.63;11.40;;;12.40;99.90;;;;;;4424264;32;20200;-75
2021/05/18 01:33:36;;;;;;;16.70;12.87;;;12.30;99.90;;;;;;4423102;32;20469;-75
2021/05/18 01:36:05;;;;;;;16.53;13.33;;;12.20;99.90;;;;;;4423584;32;20214;-75
2021/05/18 01:38:42;;;;;;;19.63;13.50;;;12.30;99.90;;;;;;4425719;32;20212;-75
2021/05/18 01:43:58;;;;;;;16.47;12.77;;;12.20;99.90;;;;;;4425159;32;20159;-74
2021/05/18 01:46:27;;;;;;;17.43;12.83;;;12.10;99.90;;;;;;4424902;32;20147;-75
2021/05/18 01:48:58;;;;;;;16.87;12.03;;;12.20;99.90;;;;;;4425115;32;20189;-74
2021/05/18 01:51:30;;;;;;;16.23;13.00;;;12.20;99.90;;;;;;4425993;32;20155;-75
2021/05/18 01:54:03;;;;;;;17.53;12.30;;;12.20;99.90;;;;;;4426536;32;20200;-74
2021/05/18 01:56:42;;;;;;;14.80;11.73;;;12.30;99.90;;;;;;4426434;32;20161;-74
2021/05/18 01:59:12;;;;;;;17.33;12.60;;;12.30;99.90;;;;;;4426503;32;20241;-74
2021/05/18 02:01:41;;;;;;;16.17;12.30;;;12.20;99.90;;;;;;4426347;32;20201;-76
2021/05/18 02:04:08;;;;;;;17.57;11.93;;;12.20;99.90;;;;;;4424979;32;20168;-76
2021/05/18 02:06:36;;;;;;;22.10;13.10;;;12.30;99.90;;;;;;4426298;32;20159;-76
2021/05/18 02:09:05;;;;;;;20.63;13.57;;;12.30;99.90;;;;;;4426379;32;20209;-76
2021/05/18 02:11:32;;;;;;;18.10;13.30;;;12.10;99.90;;;;;;4424759;32;20139;-76
2021/05/18 02:14:03;;;;;;;18.20;14.27;;;12.10;99.90;;;;;;4423982;32;20480;-76
2021/05/18 02:16:34;;;;;;;20.60;15.30;;;12.10;99.90;;;;;;4426151;32;20396;-75
2021/05/18 02:24:35;;;;;;;23.37;15.03;;;12.10;99.90;;;;;;4378664;32;20194;-76
2021/05/18 02:25:05;;;;;;;20.50;14.83;;;12.10;99.90;;;;;;4378789;32;20144;-75
2021/05/18 02:27:32;;;;;;;24.70;17.47;;;12.20;99.90;;;;;;4378539;32;20209;-76
2021/05/18 02:29:59;;;;;;;32.17;22.40;;;12.20;99.90;;;;;;4377932;32;20159;-77
2021/05/18 02:32:28;;;;;;;29.13;21.53;;;12.20;99.90;;;;;;4378604;32;20144;-77
2021/05/18 02:34:55;;;;;;;29.33;20.30;;;12.30;99.90;;;;;;4376712;32;20584;-76
2021/05/18 02:37:22;;;;;;;27.90;19.60;;;12.20;99.90;;;;;;4376974;32;20321;-76
2021/05/18 02:39:50;;;;;;;25.83;19.13;;;12.20;99.90;;;;;;4376843;32;20156;-77
2021/05/18 02:42:17;;;;;;;24.60;18.57;;;12.20;99.90;;;;;;4376632;32;20148;-77
2021/05/18 02:50:03;;;;;;;24.50;16.00;;;12.20;99.90;;;;;;4377294;32;20287;-76
2021/05/18 02:52:32;;;;;;;21.67;16.53;;;12.20;99.90;;;;;;4377680;32;20136;-77
2021/05/18 02:54:59;;;;;;;23.07;16.60;;;12.20;99.90;;;;;;4377842;32;20140;-76
2021/05/18 02:57:33;;;;;;;19.83;15.90;;;12.20;99.90;;;;;;4425613;32;20207;-76
2021/05/18 03:00:05;;;;;;;25.07;16.30;;;12.20;99.90;;;;;;4423849;32;20549;-76
2021/05/18 03:02:32;;;;;;;22.50;16.03;;;12.20;99.90;;;;;;4424927;32;20158;-75
2021/05/18 03:04:59;;;;;;;22.40;15.93;;;12.20;99.90;;;;;;4425536;32;20174;-76
2021/05/18 03:07:25;;;;;;;21.93;16.03;;;12.30;99.90;;;;;;4425441;32;20139;-75
2021/05/18 03:09:52;;;;;;;20.20;14.77;;;12.20;99.90;;;;;;4424411;32;20182;-76
2021/05/18 03:12:19;;;;;;;21.57;15.13;;;12.30;99.90;;;;;;4423855;32;20212;-75
2021/05/18 03:14:47;;;;;;;18.67;14.43;;;12.30;99.90;;;;;;4425666;32;20205;-76
2021/05/18 03:17:14;;;;;;;21.67;15.87;;;12.30;99.90;;;;;;4425234;32;20234;-76
2021/05/18 03:19:41;;;;;;;20.03;14.63;;;12.30;99.90;;;;;;4423719;32;20225;-76
2021/05/18 03:22:08;;;;;;;20.03;14.40;;;12.30;99.90;;;;;;4423745;32;20167;-76
2021/05/18 03:24:35;;;;;;;18.30;14.33;;;12.40;99.90;;;;;;4425272;32;20452;-75
2021/05/18 03:27:02;;;;;;;20.27;14.77;;;12.50;99.90;;;;;;4425242;32;20277;-75
2021/05/18 03:29:32;;;;;;;20.07;14.20;;;12.50;99.90;;;;;;4424687;32;20453;-75
2021/05/18 03:34:44;;;;;;;19.83;13.47;;;12.60;99.90;;;;;;4425497;32;20230;-74
2021/05/18 03:40:04;;;;;;;19.83;14.30;;;12.60;99.90;;;;;;4425419;32;20203;-75
2021/05/18 03:42:37;;;;;;;18.20;13.77;;;12.50;99.90;;;;;;4423088;32;20161;-75
2021/05/18 03:45:15;;;;;;;15.83;13.00;;;12.60;99.90;;;;;;4423839;32;20161;-75
2021/05/18 04:04:22;;;;;;;21.17;14.80;;;12.70;99.90;;;;;;4430476;32;20160;-76
2021/05/18 04:23:21;;;;;;;19.53;15.33;;;13.20;99.90;;;;;;4427827;32;20512;-75
2021/05/18 04:26:21;;;;;;;18.10;13.73;;;13.20;99.90;;;;;;4413416;32;20173;-75
2021/05/18 05:07:49;;;;;;;14.37;11.63;;;14.50;99.90;;;;;;4292212;33;20177;-75
2021/05/18 05:16:02;;;;;;;17.50;11.57;;;14.40;99.90;;;;;;4264608;33;20167;-75
2021/05/18 05:18:27;;;;;;;15.80;11.80;;;14.30;99.90;;;;;;4264509;33;20146;-75
2021/05/18 05:20:53;;;;;;;16.17;11.57;;;14.20;99.90;;;;;;4263738;33;20285;-75
2021/05/18 05:23:19;;;;;;;12.73;11.17;;;14.30;99.90;;;;;;4264599;33;20421;-76
2021/05/18 05:25:45;;;;;;;13.47;10.93;;;14.20;99.90;;;;;;4263758;33;20180;-75
2021/05/18 05:28:10;;;;;;;12.47;10.37;;;14.30;99.90;;;;;;4264331;33;20442;-75
2021/05/18 05:30:36;;;;;;;13.73;10.80;;;14.50;99.90;;;;;;4263227;33;20177;-75
2021/05/18 05:33:02;;;;;;;14.23;11.10;;;14.50;99.90;;;;;;4262869;33;20221;-75
2021/05/18 05:35:28;;;;;;;14.10;10.27;;;14.60;99.90;;;;;;4263705;33;20184;-75
2021/05/18 05:37:57;;;;;;;15.73;10.40;;;14.70;99.90;;;;;;4275448;33;20162;-75
2021/05/18 05:40:41;;;;;;;12.80;10.30;;;14.80;99.90;;;;;;4275827;33;20181;-76
2021/05/18 05:43:08;;;;;;;12.33;10.00;;;14.80;99.90;;;;;;4295568;32;20143;-75
2021/05/18 05:45:35;;;;;;;12.70;10.20;;;15.00;99.90;;;;;;4376740;32;20238;-76
2021/05/18 05:48:02;;;;;;;13.50;10.50;;;14.90;99.90;;;;;;4377617;32;20137;-76
2021/05/18 05:50:29;;;;;;;14.47;10.27;;;14.80;99.90;;;;;;4395404;32;20182;-75
2021/05/18 05:52:55;;;;;;;13.30;10.53;;;14.70;99.90;;;;;;4411479;32;20139;-75
2021/05/18 05:55:23;;;;;;;13.23;9.80;;;14.90;99.90;;;;;;4410170;32;20211;-75
2021/05/18 05:57:50;;;;;;;11.23;9.47;;;15.00;99.90;;;;;;4409880;32;20204;-76
2021/05/18 06:00:17;;;;;;;14.93;9.37;;;15.00;99.90;;;;;;4411531;32;20143;-76
2021/05/18 06:02:44;;;;;;;14.53;9.73;;;15.00;99.90;;;;;;4411657;32;20243;-75
2021/05/18 06:05:11;;;;;;;11.37;9.37;;;14.90;99.90;;;;;;4425363;32;20364;-74
2021/05/18 06:07:38;;;;;;;10.67;9.00;;;15.10;99.90;;;;;;4424627;32;20224;-75
2021/05/18 06:10:13;;;;;;;11.07;9.03;;;15.30;99.90;;;;;;4426680;32;20335;-75
2021/05/18 06:29:27;;;;;;;10.97;8.50;;;15.90;99.90;;;;;;4410242;32;20163;-74
2021/05/18 06:45:52;;;;;;;11.30;9.00;;;15.60;99.90;;;;;;4362201;32;20476;-75
2021/05/18 06:48:19;;;;;;;12.37;9.00;;;15.60;99.90;;;;;;4361519;32;20575;-75
2021/05/18 06:50:46;;;;;;;13.17;8.93;;;15.40;99.90;;;;;;4362160;32;20191;-75
2021/05/18 06:53:13;;;;;;;11.73;9.40;;;15.40;99.90;;;;;;4362099;32;20178;-74
2021/05/18 06:55:40;;;;;;;11.30;9.47;;;15.40;99.90;;;;;;4362175;32;20152;-76
2021/05/18 06:58:13;;;;;;;14.00;10.10;;;15.50;99.90;;;;;;4363537;32;20446;-76
2021/05/18 07:00:42;;;;;;;13.50;10.03;;;15.40;99.90;;;;;;4363416;32;20187;-75
2021/05/18 07:03:13;;;;;;;14.73;9.93;;;15.50;99.90;;;;;;4361464;32;20133;-75
2021/05/18 07:05:50;;;;;;;14.10;10.43;;;15.70;99.90;;;;;;4363108;32;20144;-76
2021/05/18 07:10:46;;;;;;;12.23;10.00;;;15.80;99.90;;;;;;4361477;32;20234;-74
2021/05/18 07:13:15;;;;;;;17.63;11.10;;;15.80;99.90;;;;;;4362746;32;20166;-75
2021/05/18 07:15:42;;;;;;;14.43;10.10;;;15.90;99.90;;;;;;4423967;32;20217;-75
2021/05/18 07:18:10;;;;;;;14.67;10.70;;;15.80;99.90;;;;;;4423919;32;20131;-74
2021/05/18 07:20:37;;;;;;;12.93;10.27;;;15.80;99.90;;;;;;4423680;32;20237;-74
2021/05/18 07:23:25;;;;;;;11.73;10.40;;;15.70;99.90;;;;;;4425422;32;20214;-75
2021/05/18 07:25:52;;;;;;;14.10;10.73;;;15.70;99.90;;;;;;4425549;32;20134;-76
2021/05/18 07:28:20;;;;;;;16.50;11.10;;;15.90;99.90;;;;;;4425372;32;20206;-74
2021/05/18 07:30:48;;;;;;;13.43;10.67;;;15.90;99.90;;;;;;4424000;32;20417;-77
2021/05/18 07:33:16;;;;;;;12.93;10.77;;;15.90;99.90;;;;;;4424630;32;20244;-76
2021/05/18 07:35:45;;;;;;;12.20;10.23;;;15.90;99.90;;;;;;4423373;32;20211;-76
2021/05/18 07:38:13;;;;;;;13.23;11.00;;;16.10;99.90;;;;;;4424556;32;20157;-75
2021/05/18 07:40:40;;;;;;;12.73;11.23;;;15.90;99.90;;;;;;4423705;32;20234;-76
2021/05/18 07:43:07;;;;;;;14.17;10.37;;;15.90;99.90;;;;;;4425282;32;20198;-78
2021/05/18 07:45:34;;;;;;;15.70;10.80;;;16.10;99.90;;;;;;4424899;32;20419;-75
2021/05/18 07:48:30;;;;;;;12.93;11.07;;;15.90;99.90;;;;;;4423521;32;20150;-75
2021/05/18 08:00:19;;;;;;;12.47;10.47;;;16.00;99.90;;;;;;4424639;32;20139;-75
2021/05/18 08:07:37;;;;;;;12.73;11.03;;;15.90;99.90;;;;;;4424923;32;20138;-76
2021/05/18 08:10:15;;;;;;;15.30;11.80;;;16.00;99.90;;;;;;4423482;32;20135;-75
2021/05/18 08:12:42;;;;;;;13.80;11.60;;;15.80;99.90;;;;;;4423589;32;20142;-75
2021/05/18 08:46:44;;;;;;;13.07;10.70;;;15.90;99.90;;;;;;4423618;32;20471;-75
2021/05/18 10:36:40;;;;;;;9.10;7.67;;;17.90;99.90;;;;;;4426743;32;20174;-76
2021/05/18 10:39:33;;;;;;;9.63;7.33;;;17.50;99.90;;;;;;4424751;32;20146;-76
2021/05/18 10:42:13;;;;;;;10.27;7.03;;;17.30;99.90;;;;;;4425354;32;20185;-75
2021/05/18 10:44:56;;;;;;;10.27;7.03;;;17.20;99.90;;;;;;4424383;32;20218;-75
2021/05/18 10:47:44;;;;;;;10.83;7.27;;;17.00;99.90;;;;;;4424382;32;20135;-76
2021/05/18 10:50:12;;;;;;;8.43;6.93;;;17.10;99.90;;;;;;4425971;32;20425;-75
2021/05/18 10:52:40;;;;;;;9.60;7.23;;;17.10;99.90;;;;;;4425802;32;20464;-75
2021/05/18 10:55:08;;;;;;;8.93;6.97;;;16.90;99.90;;;;;;4425905;32;20131;-76
2021/05/18 10:57:37;;;;;;;9.37;7.77;;;17.20;99.90;;;;;;4425614;32;20166;-76
2021/05/18 11:00:07;;;;;;;11.80;7.07;;;17.20;99.90;;;;;;4425642;32;20205;-76
2021/05/18 11:02:37;;;;;;;9.63;7.30;;;17.20;99.90;;;;;;4424033;32;20169;-76
2021/05/18 11:05:12;;;;;;;8.13;7.17;;;17.20;99.90;;;;;;4423747;32;20535;-76
2021/05/18 11:07:42;;;;;;;9.90;8.00;;;17.20;99.90;;;;;;4411851;32;20191;-76
2021/05/18 11:10:16;;;;;;;12.73;8.17;;;16.60;99.90;;;;;;4423641;32;20556;-76
2021/05/18 11:12:48;;;;;;;15.77;8.60;;;16.50;99.90;;;;;;4423362;32;20448;-76
2021/05/18 11:15:23;;;;;;;9.77;8.20;;;16.60;99.90;;;;;;4425343;32;20448;-76
2021/05/18 11:17:52;;;;;;;10.33;8.37;;;16.60;99.90;;;;;;4425458;32;20139;-76
2021/05/18 11:20:25;;;;;;;9.93;8.90;;;16.70;99.90;;;;;;4423796;32;20157;-76
2021/05/18 11:26:04;;;;;;;11.63;8.33;;;16.80;99.90;;;;;;4425201;32;20374;-78
2021/05/18 11:28:34;;;;;;;11.77;8.77;;;17.10;99.90;;;;;;4424255;32;20131;-78
2021/05/18 11:31:08;;;;;;;10.13;8.57;;;17.50;99.90;;;;;;4426003;32;20389;-76
2021/05/18 11:33:58;;;;;;;11.30;8.90;;;17.70;99.90;;;;;;4423622;32;20344;-76
2021/05/18 11:36:31;;;;;;;11.93;8.63;;;17.50;99.90;;;;;;4423906;32;20139;-76
2021/05/18 11:39:06;;;;;;;11.60;9.00;;;17.30;99.90;;;;;;4425129;32;20434;-76
2021/05/18 11:41:37;;;;;;;10.77;8.70;;;17.10;99.90;;;;;;4425574;32;20451;-76
2021/05/18 11:44:06;;;;;;;11.60;9.13;;;16.90;99.90;;;;;;4423162;32;20233;-76
2021/05/18 11:46:41;;;;;;;11.07;9.70;;;17.20;99.90;;;;;;4424112;32;20161;-76
2021/05/18 11:49:11;;;;;;;13.67;9.20;;;17.30;99.90;;;;;;4425123;32;20141;-76
2021/05/18 11:51:54;;;;;;;12.03;9.33;;;17.50;99.90;;;;;;4423793;32;20123;-75
2021/05/18 11:54:30;;;;;;;13.47;9.17;;;17.80;99.90;;;;;;4424320;32;20180;-75
2021/05/18 11:56:58;;;;;;;12.07;9.43;;;17.40;99.90;;;;;;4424100;32;20173;-76
2021/05/18 11:59:27;;;;;;;12.63;9.47;;;17.70;99.90;;;;;;4423594;32;20130;-77
2021/05/18 12:02:01;;;;;;;12.10;9.80;;;17.60;99.90;;;;;;4423314;32;20147;-76
2021/05/18 12:04:30;;;;;;;11.47;10.27;;;17.70;99.90;;;;;;4423664;32;20465;-76
2021/05/18 12:07:08;;;;;;;11.93;9.47;;;17.40;99.90;;;;;;4424935;32;20205;-76
2021/05/18 12:09:39;;;;;;;11.90;9.73;;;17.20;99.90;;;;;;4423402;32;20138;-75
2021/05/18 12:12:08;;;;;;;12.57;9.97;;;17.20;99.90;;;;;;4423461;32;20246;-76
2021/05/18 12:14:47;;;;;;;12.87;10.77;;;17.40;99.90;;;;;;4423747;32;20153;-76
2021/05/18 12:17:32;;;;;;;14.43;10.73;;;17.50;99.90;;;;;;4425265;32;20135;-75
2021/05/18 12:20:01;;;;;;;13.93;11.57;;;17.50;99.90;;;;;;4424927;32;20187;-77
2021/05/18 12:22:28;;;;;;;12.33;10.90;;;17.40;99.90;;;;;;4424266;32;20386;-77
2021/05/18 12:24:56;;;;;;;14.23;11.33;;;17.30;99.90;;;;;;4428410;32;20135;-76
2021/05/18 12:27:25;;;;;;;14.40;11.03;;;17.30;99.90;;;;;;4428507;32;20499;-77
2021/05/18 12:29:57;;;;;;;12.10;10.53;;;17.70;99.90;;;;;;4427289;32;20153;-77
2021/05/18 12:32:28;;;;;;;13.87;10.80;;;18.10;99.90;;;;;;4427672;32;20165;-77
2021/05/18 12:35:22;;;;;;;12.00;10.77;;;18.40;99.90;;;;;;4426755;32;20134;-76
2021/05/18 12:37:52;;;;;;;11.13;9.80;;;18.70;99.90;;;;;;4428065;32;20218;-77
2021/05/18 12:40:32;;;;;;;10.93;9.73;;;18.70;99.90;;;;;;4426524;32;20135;-77
2021/05/18 12:43:17;;;;;;;9.43;8.37;;;18.90;99.90;;;;;;4427054;32;20161;-76
2021/05/18 12:45:44;;;;;;;11.13;8.87;;;19.30;99.90;;;;;;4426332;32;20139;-76
2021/05/18 12:48:14;;;;;;;14.43;9.30;;;19.00;99.90;;;;;;4426328;32;20210;-76
2021/05/18 12:50:50;;;;;;;10.67;9.33;;;19.30;99.90;;;;;;4427657;32;20174;-76
2021/05/18 12:53:27;;;;;;;10.57;9.13;;;18.60;99.90;;;;;;4427984;32;20130;-77
2021/05/18 12:55:56;;;;;;;10.37;9.20;;;18.00;99.90;;;;;;4425813;32;20142;-77
2021/05/18 12:58:31;;;;;;;12.13;9.23;;;18.00;99.90;;;;;;4428132;32;20135;-77
2021/05/18 13:01:12;;;;;;;10.90;8.67;;;18.10;99.90;;;;;;4427729;32;20404;-77
2021/05/18 13:03:42;;;;;;;9.70;8.60;;;18.50;99.90;;;;;;4426809;32;20131;-77
2021/05/18 13:06:10;;;;;;;9.80;7.70;;;18.40;99.90;;;;;;4426250;32;20184;-76
2021/05/18 13:08:39;;;;;;;10.27;7.60;;;18.60;99.90;;;;;;4426218;32;20134;-77
2021/05/18 13:12:11;;;;;;;8.70;7.17;;;18.80;99.90;;;;;;4426850;32;20459;-77
2021/05/18 13:13:59;;;;;;;10.07;7.57;;;18.50;99.90;;;;;;4424826;32;20143;-77
2021/05/18 13:16:32;;;;;;;8.30;7.37;;;18.10;99.90;;;;;;4425501;32;20429;-77
2021/05/18 13:19:13;;;;;;;10.50;7.87;;;17.80;99.90;;;;;;4413909;32;20143;-77
2021/05/18 13:21:51;;;;;;;8.23;7.37;;;17.20;99.90;;;;;;4427113;32;20143;-77
2021/05/18 13:26:25;;;;;;;9.97;7.63;;;17.60;99.90;;;;;;4427571;32;20143;-76
2021/05/18 13:27:18;;;;;;;9.33;7.50;;;17.50;99.90;;;;;;4425754;32;20134;-77
2021/05/18 13:29:45;;;;;;;8.87;7.43;;;17.60;99.90;;;;;;4425714;32;20450;-76
2021/05/18 13:32:12;;;;;;;9.07;7.80;;;17.60;99.90;;;;;;4427358;32;20139;-77
2021/05/18 13:34:43;;;;;;;8.90;7.87;;;17.40;99.90;;;;;;4425651;32;20135;-77
2021/05/18 13:37:10;;;;;;;10.37;8.03;;;17.40;99.90;;;;;;4425904;32;20134;-77
2021/05/18 13:39:37;;;;;;;10.27;8.50;;;17.50;99.90;;;;;;4425662;32;20169;-77
2021/05/18 13:42:04;;;;;;;12.97;8.47;;;17.20;99.90;;;;;;4425645;32;20162;-77
2021/05/18 13:44:31;;;;;;;9.77;8.60;;;17.50;99.90;;;;;;4426187;32;20451;-77
2021/05/18 13:46:59;;;;;;;11.13;9.17;;;17.50;99.90;;;;;;4427050;32;20131;-77
2021/05/18 13:49:26;;;;;;;10.67;9.27;;;17.20;99.90;;;;;;4425948;32;20543;-77
2021/05/18 13:51:53;;;;;;;13.00;10.53;;;17.20;99.90;;;;;;4426986;32;20139;-77
2021/05/18 13:54:38;;;;;;;12.97;10.17;;;16.90;99.90;;;;;;4427001;32;20202;-77
2021/05/18 13:57:06;;;;;;;10.67;9.37;;;16.80;99.90;;;;;;4425566;32;20138;-77
2021/05/18 13:59:33;;;;;;;11.27;9.90;;;16.80;99.90;;;;;;4424440;32;20421;-77
2021/05/18 14:02:01;;;;;;;12.47;9.90;;;17.00;99.90;;;;;;4425148;32;20507;-77
2021/05/18 14:04:28;;;;;;;11.37;9.43;;;16.80;99.90;;;;;;4425115;32;20139;-78
2021/05/18 14:09:55;;;;;;;10.67;9.13;;;16.70;99.90;;;;;;4401301;32;20204;-77
2021/05/18 14:12:22;;;;;;;9.60;8.70;;;16.80;99.90;;;;;;4425679;32;20493;-77
2021/05/18 14:14:50;;;;;;;10.43;9.10;;;16.70;99.90;;;;;;4424920;32;20135;-77
2021/05/18 14:17:16;;;;;;;12.73;9.67;;;16.80;99.90;;;;;;4424584;32;20208;-76
2021/05/18 14:19:44;;;;;;;10.33;9.30;;;16.60;99.90;;;;;;4424818;32;20166;-78
2021/05/18 14:22:11;;;;;;;10.17;8.93;;;16.60;99.90;;;;;;4424687;32;20403;-77
2021/05/18 14:24:45;;;;;;;9.43;8.43;;;16.60;99.90;;;;;;4424947;32;20161;-77
2021/05/18 14:27:18;;;;;;;10.70;8.90;;;16.60;99.90;;;;;;4424822;32;20215;-76
2021/05/18 14:29:47;;;;;;;11.37;8.40;;;16.30;99.90;;;;;;4426577;32;20390;-76
2021/05/18 14:32:14;;;;;;;9.63;7.87;;;16.30;99.90;;;;;;4426428;32;20457;-77
2021/05/18 14:34:42;;;;;;;9.80;7.73;;;16.40;99.90;;;;;;4424749;32;20158;-76
2021/05/18 14:37:09;;;;;;;11.07;7.07;;;16.30;99.90;;;;;;4424380;32;20161;-76
2021/05/18 14:39:51;;;;;;;9.33;7.50;;;15.90;99.90;;;;;;4426344;32;20199;-75
2021/05/18 14:45:05;;;;;;;8.30;6.80;;;15.70;99.90;;;;;;4424466;32;20179;-77
2021/05/18 14:47:41;;;;;;;8.03;6.40;;;15.70;99.90;;;;;;4424450;32;20445;-77
2021/05/18 14:55:43;;;;;;;7.80;5.73;;;15.60;99.90;;;;;;4426262;32;20370;-76
2021/05/18 14:58:10;;;;;;;6.17;5.57;;;15.50;99.90;;;;;;4424575;32;20417;-76
2021/05/18 15:00:39;;;;;;;7.53;5.70;;;15.60;99.90;;;;;;4424525;32;20161;-77
2021/05/18 15:03:06;;;;;;;8.53;5.70;;;15.60;99.90;;;;;;4424206;32;20449;-75
2021/05/18 15:05:33;;;;;;;9.33;5.40;;;15.50;99.90;;;;;;4425582;32;20184;-77
2021/05/18 15:08:00;;;;;;;6.70;5.40;;;15.50;99.90;;;;;;4424273;32;20135;-76
2021/05/18 15:10:30;;;;;;;8.63;5.10;;;15.40;99.90;;;;;;4424221;32;20518;-76
2021/05/18 15:12:57;;;;;;;8.37;5.23;;;15.40;99.90;;;;;;4424280;32;20219;-76
2021/05/18 15:15:25;;;;;;;6.47;5.30;;;15.60;99.90;;;;;;4425028;32;20188;-76
2021/05/18 15:17:53;;;;;;;6.33;4.87;;;15.60;99.90;;;;;;4424112;32;20165;-75
2021/05/18 15:20:20;;;;;;;8.23;4.97;;;15.70;99.90;;;;;;4423909;32;20161;-76
2021/05/18 15:22:47;;;;;;;8.07;4.87;;;15.50;99.90;;;;;;4424185;32;20147;-76
2021/05/18 15:25:15;;;;;;;7.47;5.17;;;15.60;99.90;;;;;;4424198;32;20135;-77
2021/05/18 15:27:43;;;;;;;6.80;4.93;;;15.50;99.90;;;;;;4410261;32;20185;-77
2021/05/18 15:30:11;;;;;;;6.87;4.87;;;15.70;99.90;;;;;;4423897;32;20135;-76
2021/05/18 15:32:39;;;;;;;6.70;4.47;;;15.80;99.90;;;;;;4411076;32;20458;-77
2021/05/18 15:35:07;;;;;;;5.17;4.67;;;15.70;99.90;;;;;;4423435;32;20450;-77
2021/05/18 15:37:35;;;;;;;5.93;4.77;;;15.60;99.90;;;;;;4424140;32;20145;-76
2021/05/18 15:40:04;;;;;;;6.33;4.83;;;15.40;99.90;;;;;;4425492;32;20138;-76
2021/05/18 15:42:31;;;;;;;5.60;4.30;;;15.40;99.90;;;;;;4425516;32;20199;-77
2021/05/18 15:44:57;;;;;;;7.77;4.60;;;15.40;99.90;;;;;;4423647;32;20186;-76
2021/05/18 15:47:25;;;;;;;7.50;4.90;;;15.40;99.90;;;;;;4424912;32;20130;-76
2021/05/18 15:49:53;;;;;;;6.20;4.30;;;15.20;99.90;;;;;;4423624;32;20343;-76
2021/05/18 15:52:20;;;;;;;5.30;3.80;;;15.10;99.90;;;;;;4425224;32;20177;-74
2021/05/18 15:54:46;;;;;;;5.63;4.63;;;15.10;99.90;;;;;;4424177;32;20284;-75
2021/05/18 15:57:13;;;;;;;6.63;4.80;;;14.90;99.90;;;;;;4423229;32;20442;-76
2021/05/18 15:59:42;;;;;;;5.30;4.10;;;14.90;99.90;;;;;;4423724;32;20142;-76
2021/05/18 16:02:09;;;;;;;5.70;4.20;;;15.10;99.90;;;;;;4423036;32;20555;-75
2021/05/18 16:04:36;;;;;;;5.57;3.80;;;15.00;99.90;;;;;;4411210;32;20495;-75
2021/05/18 16:07:14;;;;;;;5.83;4.20;;;14.80;99.90;;;;;;4423752;32;20138;-75
2021/05/18 16:09:41;;;;;;;4.30;3.50;;;14.80;99.90;;;;;;4423616;32;20150;-76
2021/05/18 16:12:09;;;;;;;5.83;4.10;;;15.00;99.90;;;;;;4424078;32;20445;-76
2021/05/18 16:14:37;;;;;;;5.63;3.90;;;15.00;99.90;;;;;;4425011;32;20143;-75
2021/05/18 16:17:04;;;;;;;4.60;4.07;;;14.80;99.90;;;;;;4423657;32;20134;-76
2021/05/18 16:19:31;;;;;;;8.00;4.00;;;14.80;99.90;;;;;;4423384;32;20460;-76
2021/05/18 16:21:59;;;;;;;6.33;4.70;;;14.80;99.90;;;;;;4423537;32;20181;-76
2021/05/18 16:24:26;;;;;;;7.13;4.20;;;14.80;99.90;;;;;;4425126;32;20150;-76
2021/05/18 16:26:53;;;;;;;5.37;4.00;;;14.80;99.90;;;;;;4423499;32;20146;-76
2021/05/18 16:29:21;;;;;;;4.57;4.10;;;14.70;99.90;;;;;;4423588;32;20437;-76
2021/05/18 16:31:47;;;;;;;5.97;4.37;;;14.60;99.90;;;;;;4423464;32;20164;-75
2021/05/18 16:34:14;;;;;;;6.00;4.17;;;14.60;99.90;;;;;;4423309;32;20157;-76
2021/05/18 16:36:41;;;;;;;5.43;3.97;;;14.60;99.90;;;;;;4423331;32;20142;-76
2021/05/18 16:39:09;;;;;;;6.97;4.47;;;14.60;99.90;;;;;;4423710;32;20146;-76
2021/05/18 16:41:41;;;;;;;6.73;3.90;;;14.60;99.90;;;;;;4424328;32;20258;-76
2021/05/18 16:44:10;;;;;;;5.37;4.20;;;14.60;99.90;;;;;;4421931;32;20594;-75
2021/05/18 16:46:38;;;;;;;5.87;4.07;;;14.50;99.90;;;;;;4424608;32;20486;-75
2021/05/18 16:49:06;;;;;;;6.43;4.07;;;14.60;99.90;;;;;;4424160;32;20188;-76
2021/05/18 16:51:38;;;;;;;4.97;3.83;;;14.60;99.90;;;;;;4424728;32;20360;-76
2021/05/18 16:54:10;;;;;;;5.50;4.50;;;14.60;99.90;;;;;;4422430;32;20139;-76
2021/05/18 16:56:39;;;;;;;5.57;3.97;;;14.60;99.90;;;;;;4422517;32;20545;-76
2021/05/18 16:59:07;;;;;;;4.50;4.03;;;14.60;99.90;;;;;;4424053;32;20228;-76
2021/05/18 17:01:35;;;;;;;7.40;4.60;;;14.70;99.90;;;;;;4423372;32;20135;-75
2021/05/18 17:04:17;;;;;;;5.50;4.03;;;14.50;99.90;;;;;;4408856;32;20504;-75
2021/05/18 17:06:45;;;;;;;6.30;4.30;;;14.60;99.90;;;;;;4424404;32;20136;-76
2021/05/18 17:09:12;;;;;;;6.43;4.40;;;14.60;99.90;;;;;;4424786;32;20130;-75
2021/05/18 17:11:40;;;;;;;7.57;4.73;;;14.60;99.90;;;;;;4426346;32;20131;-75
2021/05/18 17:14:09;;;;;;;5.27;4.20;;;14.40;99.90;;;;;;4425851;32;20220;-75
2021/05/18 17:16:37;;;;;;;7.23;4.60;;;14.30;99.90;;;;;;4420719;32;20147;-76
2021/05/18 17:19:05;;;;;;;6.30;5.00;;;14.30;99.90;;;;;;4420922;32;20142;-76
2021/05/18 17:21:33;;;;;;;9.33;5.30;;;14.20;99.90;;;;;;4423376;32;20158;-71
2021/05/18 17:24:01;;;;;;;7.00;4.80;;;14.10;99.90;;;;;;4419132;32;20139;-72
2021/05/18 17:26:28;;;;;;;5.80;5.10;;;14.10;99.90;;;;;;4427086;32;20178;-73
2021/05/18 17:28:55;;;;;;;7.40;5.20;;;13.90;99.90;;;;;;4425632;32;20177;-72
2021/05/18 17:31:22;;;;;;;6.60;5.37;;;13.90;99.90;;;;;;4425266;32;20164;-71
2021/05/18 17:33:49;;;;;;;7.07;5.10;;;13.90;99.90;;;;;;4425869;32;20154;-72
2021/05/18 17:36:16;;;;;;;7.73;5.90;;;13.90;99.90;;;;;;4425282;32;20139;-71
2021/05/18 17:38:43;;;;;;;8.17;5.83;;;13.80;99.90;;;;;;4425412;32;20434;-72
2021/05/18 17:41:10;;;;;;;6.87;5.70;;;13.80;99.90;;;;;;4425381;32;20197;-71
2021/05/18 17:43:38;;;;;;;10.57;6.47;;;13.90;99.90;;;;;;4425393;32;20207;-72
2021/05/18 17:46:08;;;;;;;9.30;6.63;;;13.70;99.90;;;;;;4425260;32;20355;-72
2021/05/18 17:48:35;;;;;;;9.03;6.37;;;13.70;99.90;;;;;;4425152;32;20166;-73